Flight Track Log - Related Links

Times and Time Zones

All times are in EDT time to prevent confusion due to time zone crossing. See the PDT4458 flight status page for this flight to view local times or setup timezone preferences in your user account.


Time Position Orientation Groundspeed Altitude Reporting Facility
EDT Latitude Longitude Course Direction KTS MPH feet Rate Location/Type
Wed 04:29:38 PM 39.8833 -75.2167 44° Northeast 115 132 600  Level Philadelphia TRACON
Wed 04:30:38 PM 39.8667 -75.1667 113° Southeast 138 159 1,900 1,143 Climbing Philadelphia TRACON
Wed 04:31:44 PM 39.8500 -75.1167 113° Southeast 137 158 3,000 550 Climbing Philadelphia TRACON
Wed 04:32:00 PM 39.8913 -74.9174 57° Northeast  Level FlightAware Approximate
Wed 04:32:38 PM 39.8500 -75.0667 90° East 184 212 3,000  Level Philadelphia TRACON
Wed 04:33:00 PM 39.9523 -74.8383 49° Northeast  Level FlightAware Approximate
Wed 04:33:38 PM 39.8500 -75.0000 90° East 160 184 4,400  Level Philadelphia TRACON
Wed 04:34:00 PM 40.0135 -74.7582 44° Northeast  Level FlightAware Approximate
Wed 04:34:26 PM 39.8667 -74.9667 57° Northeast 149 171 5,300  Level Philadelphia TRACON
Wed 04:35:32 PM 39.9000 -74.9167 49° Northeast 156 180 6,300 933 Climbing Philadelphia TRACON
Wed 04:37:26 PM 39.9500 -74.8333 52° Northeast 170 196 8,100 621 Climbing New York TRACON
Wed 04:38:26 PM 40.0000 -74.7833 37° Northeast 202 232 8,100  Level New York TRACON
Wed 04:39:26 PM 40.0333 -74.7333 49° Northeast 211 243 8,100  Level New York TRACON
Wed 04:40:26 PM 40.0833 -74.6833 37° Northeast 219 252 8,100  Level New York TRACON
Wed 04:41:32 PM 40.1167 -74.6167 57° Northeast 220 253 8,100  Level New York TRACON
Wed 04:42:32 PM 40.1667 -74.5500 46° Northeast 221 254 8,100  Level New York TRACON
Wed 04:43:26 PM 40.2000 -74.5000 49° Northeast 224 258 8,100  Level New York TRACON
Wed 04:44:26 PM 40.2500 -74.4500 37° Northeast 221 254 8,100 -50 Level New York TRACON
Wed 04:45:26 PM 40.3000 -74.3833 45° Northeast 223 257 8,000 -500 Descending New York TRACON
Wed 04:46:26 PM 40.3333 -74.3333 49° Northeast 236 272 7,100 -450 Descending New York TRACON
Wed 04:47:26 PM 40.3833 -74.2667 45° Northeast 225 259 7,100  Level New York TRACON
Wed 04:48:26 PM 40.4167 -74.2167 49° Northeast 219 252 7,100 -500 Level New York TRACON
Wed 04:49:26 PM 40.4667 -74.1500 45° Northeast 223 257 6,100 -1,550 Descending New York TRACON
Wed 04:50:26 PM 40.5167 -74.1167 27° Northeast 236 272 4,000 -1,500 Descending New York TRACON
Wed 04:51:26 PM 40.5833 -74.0667 30° Northeast 221 254 3,100 -450 Descending New York TRACON
Wed 04:52:26 PM 40.6333 -74.0500 14° North 219 252 3,100  Level New York TRACON
Wed 04:53:26 PM 40.6833 -74.0333 14° North 213 245 3,100  Level New York TRACON
Wed 04:54:26 PM 40.7500 -74.0167 11° North 213 245 3,100  Level New York TRACON
Wed 04:55:20 PM 40.7833 -73.9833 37° Northeast 207 238 3,100 -50 Level New York TRACON
Wed 04:56:26 PM 40.8333 -73.9167 45° Northeast 205 236 3,000 -91 Descending New York TRACON

Login

Don't have an account? Register now (free) for customized features, flight alerts, and more!